Time;durP1;ratioP1;P1;durP2;ratioP2;P2;SDS_P1;SDS_P2;PMS_P1;PMS_P2;Temp;Humidity;BMP_temperature;BMP_pressure;BME280_temperature;BME280_humidity;BME280_pressure;Samples;Min_cycle;Max_cycle;Signal;HPM_P1;HPM_P2
2024/04/14 00:02:11;;;;;;;4.00;3.60;;;;;;;19.87;65.92;100916.22;5489313;26;20220;-76
2024/04/14 00:04:40;;;;;;;3.77;3.47;;;;;;;19.86;65.81;100918.03;5489709;26;20271;-78
2024/04/14 00:07:05;;;;;;;3.60;3.30;;;;;;;19.78;66.39;100915.75;5489533;26;20233;-78
2024/04/14 00:09:33;;;;;;;3.90;3.60;;;;;;;19.73;66.90;100907.16;5489516;26;20655;-78
2024/04/14 00:12:01;;;;;;;3.63;3.33;;;;;;;19.57;67.74;100890.31;5489819;26;20275;-78
2024/04/14 00:14:29;;;;;;;4.00;3.73;;;;;;;19.33;68.68;100856.16;5489536;26;20237;-78
2024/04/14 00:16:55;;;;;;;4.73;4.33;;;;;;;19.30;69.39;100832.47;5489798;26;20267;-78
2024/04/14 00:19:23;;;;;;;5.03;4.07;;;;;;;19.22;69.76;100818.75;5456887;26;20245;-78
2024/04/14 00:21:48;;;;;;;4.83;3.90;;;;;;;19.27;69.89;100789.44;5452987;26;20257;-78
2024/04/14 00:24:16;;;;;;;5.20;4.70;;;;;;;19.24;70.26;100778.03;5452367;26;20233;-77
2024/04/14 00:26:42;;;;;;;4.70;4.30;;;;;;;19.18;70.88;100754.53;5453104;26;20244;-78
2024/04/14 00:29:12;;;;;;;9.77;4.73;;;;;;;19.09;71.50;100733.81;5453359;26;20239;-77
2024/04/14 00:31:38;;;;;;;5.40;4.90;;;;;;;19.25;71.21;100728.63;5459792;26;20451;-78
2024/04/14 00:34:09;;;;;;;5.53;5.10;;;;;;;19.27;70.72;100725.91;5489059;26;20289;-77
2024/04/14 00:36:35;;;;;;;5.73;5.23;;;;;;;19.22;71.49;100742.00;5489290;26;20246;-78
2024/04/14 00:39:03;;;;;;;5.77;5.27;;;;;;;19.24;71.56;100730.38;5488598;26;20568;-77
2024/04/14 00:41:31;;;;;;;5.37;4.97;;;;;;;19.19;71.56;100736.88;5488585;26;20232;-78
2024/04/14 00:43:59;;;;;;;5.17;4.87;;;;;;;19.28;71.61;100735.53;5488406;26;20235;-76
2024/04/14 00:46:27;;;;;;;5.53;5.13;;;;;;;19.04;72.59;100725.25;5495336;26;20267;-75
2024/04/14 00:48:55;;;;;;;5.37;4.97;;;;;;;18.97;72.42;100729.16;5492694;26;20241;-79
2024/04/14 00:51:21;;;;;;;5.43;5.00;;;;;;;18.89;73.25;100705.72;5467490;26;20233;-78
2024/04/14 00:53:49;;;;;;;5.70;5.30;;;;;;;18.85;73.02;100705.00;5477099;26;20707;-77
2024/04/14 00:56:14;;;;;;;9.23;6.50;;;;;;;18.98;73.17;100699.94;5473153;26;20582;-77
2024/04/14 00:58:43;;;;;;;6.27;5.60;;;;;;;18.91;73.38;100713.56;5450881;26;20278;-77
2024/04/14 01:01:08;;;;;;;5.70;5.20;;;;;;;18.90;73.58;100690.69;5452682;26;20589;-77
2024/04/14 01:03:39;;;;;;;6.50;5.90;;;;;;;18.49;74.46;100681.16;5453194;26;20236;-77
2024/04/14 01:06:05;;;;;;;5.63;5.13;;;;;;;18.31;75.22;100685.53;5452998;26;20233;-78
2024/04/14 01:08:33;;;;;;;5.97;5.47;;;;;;;18.27;73.46;100689.25;5452324;26;20625;-77
2024/04/14 01:10:59;;;;;;;5.33;4.83;;;;;;;18.21;71.98;100735.31;5452578;26;20278;-77
2024/04/14 01:13:27;;;;;;;5.30;4.83;;;;;;;18.16;70.03;100797.25;5452683;26;20280;-78
2024/04/14 01:15:52;;;;;;;5.57;5.07;;;;;;;18.41;69.05;100828.69;5452211;26;20237;-77
2024/04/14 01:18:20;;;;;;;5.77;4.87;;;;;;;18.33;69.04;100851.97;5451693;26;20675;-78
2024/04/14 01:20:48;;;;;;;5.23;4.20;;;;;;;18.05;66.89;100877.81;5452496;26;20271;-75
2024/04/14 01:23:16;;;;;;;5.30;3.73;;;;;;;18.20;64.84;100952.09;5451289;26;20241;-77
2024/04/14 01:25:44;;;;;;;5.93;3.80;;;;;;;17.97;64.83;100995.31;5452891;26;20229;-78
2024/04/14 01:28:12;;;;;;;4.77;4.37;;;;;;;18.09;64.07;101020.34;5466449;26;20237;-77
2024/04/14 01:30:38;;;;;;;4.10;3.80;;;;;;;17.96;63.60;101043.78;5488324;26;20279;-77
2024/04/14 01:33:06;;;;;;;4.17;3.77;;;;;;;17.91;63.81;101053.66;5487933;26;20609;-78
2024/04/14 01:35:31;;;;;;;3.90;3.50;;;;;;;17.97;63.35;101074.56;5487875;26;20604;-77
2024/04/14 01:37:59;;;;;;;3.47;3.13;;;;;;;17.62;62.84;101096.09;5487461;26;20236;-77
2024/04/14 01:40:25;;;;;;;3.83;3.00;;;;;;;17.34;64.45;101090.09;5488701;26;20274;-78
2024/04/14 01:42:58;;;;;;;3.23;2.90;;;;;;;17.37;64.68;101082.09;5488425;26;20234;-79
2024/04/14 01:45:23;;;;;;;3.50;3.20;;;;;;;17.43;64.61;101069.53;5487641;26;20235;-78
2024/04/14 01:47:51;;;;;;;3.47;3.17;;;;;;;17.33;64.81;101070.78;5488007;26;20619;-77
2024/04/14 01:50:17;;;;;;;3.87;3.13;;;;;;;17.45;64.83;101066.81;5487525;26;20748;-77
2024/04/14 01:52:45;;;;;;;3.43;3.13;;;;;;;17.27;65.23;101057.81;5488405;26;20311;-76
2024/04/14 01:55:10;;;;;;;3.13;2.83;;;;;;;17.07;65.35;101062.03;5487452;26;20231;-78
2024/04/14 01:57:38;;;;;;;3.13;2.83;;;;;;;17.14;65.29;101054.75;5468253;26;20607;-77
2024/04/14 02:00:08;;;;;;;3.50;3.20;;;;;;;17.17;65.44;101048.53;5463031;26;20617;-77
2024/04/14 02:02:36;;;;;;;3.73;3.43;;;;;;;16.82;67.08;101030.41;5487770;26;20238;-77
2024/04/14 02:05:01;;;;;;;3.83;3.40;;;;;;;16.71;67.55;101002.66;5488322;26;20234;-77
2024/04/14 02:07:29;;;;;;;3.30;3.00;;;;;;;16.66;67.64;101002.81;5487280;26;20352;-78
2024/04/14 02:09:56;;;;;;;3.43;2.87;;;;;;;16.77;67.99;100982.22;5486918;26;20272;-77
2024/04/14 02:12:24;;;;;;;3.37;3.07;;;;;;;16.46;69.26;100972.75;5487932;26;20271;-77
2024/04/14 02:14:49;;;;;;;3.10;2.80;;;;;;;16.44;68.78;100950.00;5487150;26;20339;-79
2024/04/14 02:17:20;;;;;;;3.63;3.33;;;;;;;16.39;69.51;100941.41;5486760;26;20256;-77
2024/04/14 02:19:45;;;;;;;4.43;3.00;;;;;;;16.44;69.45;100935.06;5437138;26;20229;-78
2024/04/14 02:22:13;;;;;;;3.20;2.90;;;;;;;16.31;70.74;100930.28;5451059;26;20794;-78
2024/04/14 02:24:38;;;;;;;4.87;2.80;;;;;;;16.07;71.98;100891.56;5450057;26;20237;-78
2024/04/14 02:27:07;;;;;;;5.03;3.17;;;;;;;15.99;72.72;100856.72;5451633;26;20235;-78
2024/04/14 02:29:32;;;;;;;3.87;2.67;;;;;;;15.95;72.63;100846.34;5450689;26;20235;-77
2024/04/14 02:32:00;;;;;;;5.40;2.63;;;;;;;16.08;73.03;100842.41;5450495;26;20957;-77
2024/04/14 02:34:29;;;;;;;3.57;3.27;;;;;;;16.02;72.32;100838.19;5481937;26;20281;-77
2024/04/14 02:36:57;;;;;;;3.37;2.80;;;;;;;15.90;72.85;100849.16;5486943;26;20587;-77
2024/04/14 02:39:23;;;;;;;4.97;2.70;;;;;;;15.81;71.71;100852.94;5486842;26;20268;-77
2024/04/14 02:41:51;;;;;;;2.93;2.50;;;;;;;15.77;71.76;100869.75;5487119;26;20233;-78
2024/04/14 02:44:16;;;;;;;7.13;2.80;;;;;;;15.67;71.48;100869.19;5486578;26;20266;-78
2024/04/14 02:46:45;;;;;;;2.83;2.27;;;;;;;15.90;71.35;100864.97;5485845;26;20232;-76
2024/04/14 02:49:10;;;;;;;2.73;2.53;;;;;;;15.85;71.61;100872.13;5487397;26;20342;-76
2024/04/14 02:51:41;;;;;;;2.57;2.33;;;;;;;15.80;70.57;100896.00;5487208;26;20238;-78
2024/04/14 02:54:07;;;;;;;3.17;2.87;;;;;;;15.80;70.83;100917.06;5485914;26;20783;-78
2024/04/14 02:56:42;;;;;;;2.57;2.37;;;;;;;15.75;69.94;100929.50;5487011;26;20349;-78
2024/04/14 02:59:07;;;;;;;4.33;2.60;;;;;;;15.78;69.90;100946.97;5486473;26;20283;-77
2024/04/14 03:01:35;;;;;;;3.83;2.23;;;;;;;15.65;70.09;100960.47;5486619;26;20581;-77
2024/04/14 03:04:04;;;;;;;2.23;1.80;;;;;;;15.44;71.08;100946.25;5486768;26;20229;-78
2024/04/14 03:06:32;;;;;;;4.10;2.70;;;;;;;15.44;72.20;100926.94;5486370;26;20325;-77
2024/04/14 03:09:00;;;;;;;3.50;2.27;;;;;;;15.55;71.95;100900.31;5485290;26;20322;-77
2024/04/14 03:11:28;;;;;;;4.43;2.23;;;;;;;15.62;71.37;100905.31;5486269;26;20285;-77
2024/04/14 03:13:53;;;;;;;3.07;2.20;;;;;;;15.57;71.41;100930.06;5486116;26;20233;-78
2024/04/14 03:16:21;;;;;;;3.93;2.27;;;;;;;15.54;72.32;100901.22;5486282;26;20274;-78
2024/04/14 03:18:47;;;;;;;5.53;2.30;;;;;;;15.79;71.16;100910.06;5486350;26;20233;-77
2024/04/14 03:21:15;;;;;;;3.97;2.13;;;;;;;15.99;70.78;100916.44;5488231;26;20275;-77
2024/04/14 03:23:42;;;;;;;3.53;2.60;;;;;;;15.66;71.61;100929.78;5488832;26;20287;-77
2024/04/14 03:26:13;;;;;;;4.13;2.43;;;;;;;15.81;71.57;100916.13;5490064;26;20337;-77
2024/04/14 03:28:38;;;;;;;3.73;2.33;;;;;;;15.90;71.98;100912.34;5489431;26;20279;-77
2024/04/14 03:31:06;;;;;;;2.40;2.20;;;;;;;15.56;73.21;100910.78;5489837;26;20232;-77
2024/04/14 03:33:32;;;;;;;3.73;2.50;;;;;;;15.44;72.41;100908.53;5472909;26;20265;-77
2024/04/14 03:36:01;;;;;;;2.73;2.37;;;;;;;15.63;72.00;100901.78;5453743;26;20585;-77
2024/04/14 03:38:36;;;;;;;4.23;2.40;;;;;;;15.61;71.60;100908.84;5452358;26;20239;-77
2024/04/14 03:41:05;;;;;;;2.80;1.90;;;;;;;15.73;71.91;100910.25;5478199;26;20236;-76
2024/04/14 03:43:35;;;;;;;2.83;2.33;;;;;;;15.79;71.27;100928.47;5489727;26;20246;-77
2024/04/14 03:46:03;;;;;;;4.03;2.30;;;;;;;15.60;71.61;100930.84;5489369;26;20233;-78
2024/04/14 03:48:31;;;;;;;4.93;2.10;;;;;;;15.82;71.64;100917.88;5489661;26;20274;-77
2024/04/14 03:50:57;;;;;;;5.77;2.70;;;;;;;15.73;71.90;100917.31;5489474;26;20232;-77
2024/04/14 03:53:25;;;;;;;3.57;2.13;;;;;;;15.54;73.01;100915.25;5466350;26;20280;-77
2024/04/14 03:55:50;;;;;;;3.07;2.20;;;;;;;15.76;72.65;100893.53;5453189;26;20234;-78
2024/04/14 03:58:18;;;;;;;3.37;1.90;;;;;;;15.88;72.40;100896.59;5452812;26;20342;-77
2024/04/14 04:00:46;;;;;;;4.43;2.00;;;;;;;16.04;72.42;100906.63;5452921;26;20230;-77
2024/04/14 04:03:14;;;;;;;4.20;1.90;;;;;;;15.65;72.09;100928.03;5453162;26;20280;-77
2024/04/14 04:05:40;;;;;;;4.13;2.63;;;;;;;15.46;72.07;100920.75;5453170;26;20231;-77
2024/04/14 04:08:08;;;;;;;3.13;2.17;;;;;;;15.40;73.04;100906.91;5452494;26;20243;-77
2024/04/14 04:10:33;;;;;;;3.70;2.50;;;;;;;15.34;72.74;100912.34;5453233;26;20237;-77
2024/04/14 04:13:01;;;;;;;4.33;3.30;;;;;;;15.59;72.13;100901.94;5452950;26;20304;-76
2024/04/14 04:15:27;;;;;;;4.90;2.60;;;;;;;15.47;72.89;100911.06;5452537;26;20221;-77
2024/04/14 04:17:58;;;;;;;3.07;2.17;;;;;;;15.33;74.19;100889.59;5452343;26;20238;-77
2024/04/14 04:20:23;;;;;;;3.90;2.40;;;;;;;15.34;74.48;100873.78;5453041;26;20276;-77
2024/04/14 04:22:51;;;;;;;3.53;2.73;;;;;;;15.36;74.09;100856.19;5452935;26;20586;-76
2024/04/14 04:25:16;;;;;;;2.60;2.10;;;;;;;15.45;73.39;100869.03;5452607;26;20229;-77
2024/04/14 04:27:44;;;;;;;4.67;2.40;;;;;;;15.60;73.34;100880.84;5458458;26;20285;-77
2024/04/14 04:30:10;;;;;;;4.33;2.50;;;;;;;15.38;73.28;100898.19;5458637;26;20274;-77
2024/04/14 04:32:40;;;;;;;4.77;2.80;;;;;;;15.14;74.10;100905.09;5464021;26;20238;-77
2024/04/14 04:35:09;;;;;;;3.90;2.73;;;;;;;15.20;74.77;100875.97;5501925;26;20565;-77
2024/04/14 04:37:37;;;;;;;3.77;2.23;;;;;;;15.31;74.80;100871.25;5459320;26;20241;-77
2024/04/14 04:40:03;;;;;;;5.63;3.30;;;;;;;15.51;74.39;100869.75;5488301;26;20357;-77
2024/04/14 04:42:31;;;;;;;3.70;3.00;;;;;;;15.25;74.76;100884.59;5489096;26;20595;-76
2024/04/14 04:44:56;;;;;;;4.23;2.50;;;;;;;15.22;74.89;100858.38;5451673;26;20234;-77
2024/04/14 04:47:24;;;;;;;4.17;2.50;;;;;;;14.97;75.84;100866.19;5452774;26;20284;-77
2024/04/14 04:49:50;;;;;;;5.57;3.00;;;;;;;15.04;76.17;100834.41;5456556;26;20237;-74
2024/04/14 04:52:20;;;;;;;4.93;3.10;;;;;;;14.80;76.64;100838.59;5488999;26;20300;-77
2024/04/14 04:54:46;;;;;;;5.00;3.67;;;;;;;15.09;75.61;100835.09;5487944;26;20264;-76
2024/04/14 04:57:14;;;;;;;6.30;3.00;;;;;;;15.16;75.87;100850.69;5488557;26;20760;-77
2024/04/14 04:59:40;;;;;;;4.13;3.10;;;;;;;15.19;76.20;100832.19;5488102;26;20233;-77
2024/04/14 05:02:08;;;;;;;6.40;3.50;;;;;;;15.38;75.60;100837.69;5488102;26;20259;-77
2024/04/14 05:04:33;;;;;;;4.90;3.70;;;;;;;15.52;75.16;100851.28;5487943;26;20736;-77
2024/04/14 05:07:02;;;;;;;7.03;3.40;;;;;;;15.41;75.57;100867.41;5488122;26;20238;-77
2024/04/14 05:09:30;;;;;;;5.73;3.20;;;;;;;15.17;77.05;100858.53;5487846;26;20272;-77
2024/04/14 05:11:58;;;;;;;5.67;3.90;;;;;;;15.26;77.00;100847.72;5437317;26;20237;-77
2024/04/14 05:14:23;;;;;;;3.50;3.20;;;;;;;15.01;77.23;100849.41;5451996;26;20226;-77
2024/04/14 05:16:51;;;;;;;4.10;3.50;;;;;;;15.21;77.04;100838.25;5451489;26;20297;-76
2024/04/14 05:19:17;;;;;;;5.97;3.53;;;;;;;15.08;77.47;100843.91;5452092;26;20241;-77
2024/04/14 05:21:45;;;;;;;6.60;3.90;;;;;;;15.11;78.00;100826.31;5451587;26;20775;-77
2024/04/14 05:24:11;;;;;;;6.00;3.17;;;;;;;15.24;77.04;100832.88;5451213;26;20273;-77
2024/04/14 05:26:42;;;;;;;7.27;3.90;;;;;;;15.31;76.81;100847.56;5483455;26;20229;-77
2024/04/14 05:29:07;;;;;;;4.40;3.17;;;;;;;15.44;76.62;100855.91;5487870;26;20259;-77
2024/04/14 05:31:35;;;;;;;6.23;3.07;;;;;;;15.35;76.67;100864.13;5487401;26;20233;-77
2024/04/14 05:34:00;;;;;;;5.93;1.90;;;;;;;15.21;73.25;100944.31;5488034;26;20230;-77
2024/04/14 05:36:28;;;;;;;2.83;1.80;;;;;;;15.07;72.58;100967.53;5488155;20;20316;-78
2024/04/14 05:38:54;;;;;;;5.60;2.13;;;;;;;15.07;71.16;101010.44;5444431;26;20259;-78
2024/04/14 05:41:22;;;;;;;3.37;2.00;;;;;;;14.99;70.79;101045.75;5448508;26;20593;-77
2024/04/14 05:43:50;;;;;;;3.63;1.40;;;;;;;15.15;70.73;101060.19;5447885;26;20226;-77
2024/04/14 05:46:18;;;;;;;2.80;2.07;;;;;;;15.14;71.14;101060.22;5449112;26;20288;-78
2024/04/14 05:48:43;;;;;;;4.10;1.80;;;;;;;15.30;70.54;101072.03;5449493;26;20272;-77
2024/04/14 05:51:11;;;;;;;3.50;1.57;;;;;;;15.27;70.83;101101.94;5450029;26;20234;-77
2024/04/14 05:53:37;;;;;;;5.17;1.50;;;;;;;15.33;70.07;101103.53;5452161;26;20235;-78
2024/04/14 05:56:05;;;;;;;3.93;2.10;;;;;;;15.28;70.81;101105.41;5451928;26;20273;-78
2024/04/14 05:58:32;;;;;;;4.80;2.20;;;;;;;15.19;71.30;101110.94;5451862;26;20236;-78
2024/04/14 06:01:08;;;;;;;4.60;1.70;;;;;;;15.03;70.94;101118.38;5451737;26;20267;-78
2024/04/14 06:03:33;;;;;;;1.97;1.40;;;;;;;14.94;71.01;101116.00;5451445;26;20566;-78
2024/04/14 06:06:02;;;;;;;3.00;1.60;;;;;;;15.00;70.99;101113.19;5452087;26;20296;-78
2024/04/14 06:08:28;;;;;;;3.97;1.80;;;;;;;14.96;71.17;101117.66;5449898;26;20234;-78
2024/04/14 06:10:58;;;;;;;2.47;1.57;;;;;;;14.94;71.27;101121.25;5451878;26;20785;-78
2024/04/14 06:13:24;;;;;;;1.73;1.30;;;;;;;15.03;71.54;101115.75;5453360;26;20266;-78
2024/04/14 06:15:52;;;;;;;2.00;1.13;;;;;;;14.98;70.56;101112.38;5452057;26;20691;-77
2024/04/14 06:18:20;;;;;;;2.30;1.53;;;;;;;15.03;70.61;101124.50;5452351;26;20285;-78
2024/04/14 06:20:48;;;;;;;2.80;1.60;;;;;;;14.97;71.27;101129.91;5452241;26;20261;-77
2024/04/14 06:23:14;;;;;;;2.63;1.20;;;;;;;14.86;72.58;101119.66;5451975;26;20592;-78
2024/04/14 06:25:42;;;;;;;3.07;1.20;;;;;;;14.81;70.74;101125.97;5451659;26;20234;-78
2024/04/14 06:28:07;;;;;;;2.20;1.40;;;;;;;14.56;70.28;101147.59;5450790;26;20714;-77
2024/04/14 06:30:35;;;;;;;3.10;1.40;;;;;;;14.64;70.91;101137.75;5450546;26;20234;-77
2024/04/14 06:33:00;;;;;;;1.63;1.17;;;;;;;14.82;70.70;101125.91;5450529;26;20273;-77
2024/04/14 06:35:31;;;;;;;1.90;1.10;;;;;;;14.66;70.08;101164.00;5450519;26;20234;-77
2024/04/14 06:37:56;;;;;;;3.60;1.00;;;;;;;14.55;69.20;101174.75;5450284;26;20297;-76
2024/04/14 06:40:25;;;;;;;2.70;1.07;;;;;;;14.25;69.59;101197.28;5450400;26;20233;-77
2024/04/14 06:42:50;;;;;;;2.47;1.30;;;;;;;14.35;70.06;101188.34;5450718;26;20270;-77
2024/04/14 06:45:18;;;;;;;5.60;1.37;;;;;;;14.37;69.35;101185.66;5448592;26;20273;-76
2024/04/14 06:47:44;;;;;;;2.83;1.27;;;;;;;14.59;69.10;101196.56;5449711;26;20233;-76
2024/04/14 06:50:11;;;;;;;3.87;1.10;;;;;;;14.35;69.28;101219.84;5450288;26;20234;-76
2024/04/14 06:52:39;;;;;;;1.87;1.13;;;;;;;14.28;69.51;101218.25;5449303;26;20261;-77
2024/04/14 06:55:11;;;;;;;2.43;1.03;;;;;;;14.61;69.63;101205.31;5438277;26;20250;-77
2024/04/14 06:57:36;;;;;;;4.13;1.07;;;;;;;14.79;69.07;101204.00;5453792;26;20249;-77
2024/04/14 07:00:05;;;;;;;2.00;0.90;;;;;;;14.89;68.68;101222.13;5423582;26;20234;-77
2024/04/14 07:02:30;;;;;;;2.10;1.20;;;;;;;14.74;69.50;101232.13;5453482;26;20226;-77
2024/04/14 07:04:58;;;;;;;4.13;1.27;;;;;;;14.70;69.83;101219.06;5451027;26;20335;-77
2024/04/14 07:07:24;;;;;;;3.47;1.57;;;;;;;14.81;68.18;101231.97;5451747;26;20767;-77
2024/04/14 07:09:54;;;;;;;4.13;1.00;;;;;;;14.91;68.16;101235.25;5438267;26;20233;-77
2024/04/14 07:12:20;;;;;;;2.70;0.80;;;;;;;14.78;68.55;101252.19;5454087;26;20591;-77
2024/04/14 07:14:48;;;;;;;3.13;1.00;;;;;;;14.62;66.90;101267.44;5453389;26;20275;-77
2024/04/14 07:17:13;;;;;;;3.00;0.80;;;;;;;14.51;64.89;101317.59;5452488;26;20241;-76
2024/04/14 07:19:42;;;;;;;2.80;0.80;;;;;;;14.67;64.23;101342.66;5452908;26;20273;-78
2024/04/14 07:22:07;;;;;;;2.33;0.80;;;;;;;14.57;61.34;101414.69;5453508;26;20348;-76
2024/04/14 07:24:35;;;;;;;2.90;0.80;;;;;;;14.63;60.91;101461.00;5452008;26;20237;-77
2024/04/14 07:27:05;;;;;;;3.13;1.03;;;;;;;14.49;62.24;101485.75;5453136;26;20380;-77
2024/04/14 07:29:33;;;;;;;3.95;1.25;;;;;;;14.63;62.61;101469.75;5451436;26;20369;-77
2024/04/14 07:31:58;;;;;;;2.07;0.90;;;;;;;14.81;62.08;101467.66;5453776;26;20229;-78
2024/04/14 07:34:26;;;;;;;2.63;0.97;;;;;;;14.58;62.32;101489.13;5456256;26;20626;-77
2024/04/14 07:36:52;;;;;;;2.10;0.90;;;;;;;14.67;63.44;101468.78;5448554;26;20241;-77
2024/04/14 07:39:20;;;;;;;2.77;0.97;;;;;;;14.82;62.78;101457.09;5461885;26;20286;-77
2024/04/14 07:41:46;;;;;;;2.43;0.90;;;;;;;14.94;62.83;101453.34;5463033;26;20272;-77
2024/04/14 07:44:16;;;;;;;2.13;0.97;;;;;;;14.74;62.09;101458.16;5460250;26;20237;-78
2024/04/14 07:46:42;;;;;;;3.07;0.90;;;;;;;14.56;60.77;101499.66;5454658;26;20235;-77
2024/04/14 07:49:10;;;;;;;4.13;1.07;;;;;;;14.62;61.63;101517.06;5454005;26;20274;-77
2024/04/14 07:51:36;;;;;;;2.07;0.80;;;;;;;14.54;61.09;101503.19;5454263;26;20234;-78
2024/04/14 07:54:03;;;;;;;3.37;0.90;;;;;;;14.65;60.64;101517.91;5452330;26;20264;-77
2024/04/14 07:56:29;;;;;;;2.77;0.97;;;;;;;14.67;61.24;101525.75;5453472;26;20241;-76
2024/04/14 07:58:57;;;;;;;1.63;0.70;;;;;;;14.78;61.13;101526.41;5453528;26;20767;-78
2024/04/14 08:01:25;;;;;;;3.03;0.87;;;;;;;14.84;60.75;101528.91;5454179;26;20276;-76
2024/04/14 08:03:53;;;;;;;4.10;1.00;;;;;;;14.81;60.82;101544.75;5452555;26;20265;-77
2024/04/14 08:06:18;;;;;;;4.20;1.13;;;;;;;14.70;61.44;101544.94;5453800;26;21008;-78
2024/04/14 08:08:46;;;;;;;3.77;1.03;;;;;;;14.88;61.05;101530.63;5452954;26;20238;-78
2024/04/14 08:11:12;;;;;;;3.70;1.10;;;;;;;14.97;61.07;101547.09;5453812;26;20233;-78
2024/04/14 08:13:40;;;;;;;1.97;0.90;;;;;;;14.81;61.48;101538.63;5453133;26;20647;-77
2024/04/14 08:16:06;;;;;;;3.70;0.90;;;;;;;14.99;61.42;101526.91;5453357;26;20225;-77
2024/04/14 08:18:36;;;;;;;2.30;1.10;;;;;;;15.02;61.64;101534.72;5453256;26;20250;-77
2024/04/14 08:21:02;;;;;;;3.13;1.00;;;;;;;15.07;61.11;101532.88;5453437;26;20234;-77
2024/04/14 08:23:32;;;;;;;4.23;1.07;;;;;;;15.21;59.70;101543.97;5452393;26;20289;-77
2024/04/14 08:26:00;;;;;;;2.40;1.10;;;;;;;14.96;60.41;101561.13;5453161;26;20646;-78
2024/04/14 08:28:28;;;;;;;3.80;1.10;;;;;;;15.06;60.34;101565.31;5453401;26;20229;-77
2024/04/14 08:30:53;;;;;;;2.87;0.93;;;;;;;14.91;62.38;101569.13;5452688;26;20365;-77
2024/04/14 08:33:21;;;;;;;2.37;0.80;;;;;;;15.19;60.85;101547.53;5453131;26;20269;-78
2024/04/14 08:35:49;;;;;;;3.33;1.40;;;;;;;15.25;60.92;101556.16;5454237;26;20238;-77
2024/04/14 08:38:18;;;;;;;2.70;0.90;;;;;;;15.19;60.32;101571.22;5464324;26;20277;-78
2024/04/14 08:40:52;;;;;;;4.73;1.13;;;;;;;15.09;58.91;101604.72;5453906;26;20246;-78
2024/04/14 08:43:22;;;;;;;2.07;0.87;;;;;;;14.96;61.36;101613.72;4699386;26;10000640;-78
2024/04/14 08:45:48;;;;;;;3.73;1.50;;;;;;;14.78;58.01;101630.69;5449733;26;20230;-78
2024/04/14 08:48:19;;;;;;;3.77;0.80;;;;;;;14.89;57.57;101653.25;5449074;26;21232;-79
2024/04/14 08:50:50;;;;;;;3.10;0.80;;;;;;;14.91;58.22;101663.75;5449948;26;20248;-78
2024/04/14 08:53:21;;;;;;;3.23;0.90;;;;;;;15.09;57.47;101666.06;5436151;26;20671;-78
2024/04/14 08:55:46;;;;;;;1.57;0.60;;;;;;;15.12;56.34;101691.41;5451420;26;20234;-79
2024/04/14 08:58:17;;;;;;;2.43;0.77;;;;;;;15.26;55.40;101720.13;5436645;26;20287;-78
2024/04/14 09:00:44;;;;;;;2.30;0.93;;;;;;;15.23;56.33;101734.19;5450880;26;20264;-78
2024/04/14 09:03:12;;;;;;;6.47;1.30;;;;;;;15.32;54.86;101735.81;5449971;26;20334;-78
2024/04/14 09:05:40;;;;;;;3.03;0.60;;;;;;;15.39;54.54;101769.00;5462995;26;20250;-78
2024/04/14 09:08:11;;;;;;;3.47;0.87;;;;;;;15.03;54.15;101820.47;5451564;26;20284;-78
2024/04/14 09:10:36;;;;;;;4.17;1.10;;;;;;;15.07;53.50;101830.91;5450928;26;20233;-78
2024/04/14 09:13:05;;;;;;;3.53;1.30;;;;;;;15.06;53.77;101846.69;5452447;26;20413;-78
2024/04/14 09:15:37;;;;;;;2.33;1.10;;;;;;;14.99;54.02;101838.03;5450649;26;20226;-78
2024/04/14 09:18:05;;;;;;;3.63;1.07;;;;;;;14.91;53.56;101837.28;5447984;26;20268;-77
2024/04/14 09:20:32;;;;;;;3.27;1.20;;;;;;;15.06;53.50;101833.53;5449345;26;20276;-78
2024/04/14 09:23:00;;;;;;;3.83;0.90;;;;;;;14.86;53.91;101865.38;5448639;26;20341;-81
2024/04/14 09:25:28;;;;;;;1.40;0.63;;;;;;;15.04;53.98;101838.84;5449363;26;20732;-79
2024/04/14 09:28:03;;;;;;;3.00;1.20;;;;;;;15.28;53.56;101831.44;5448553;26;20272;-78
2024/04/14 09:30:28;;;;;;;3.17;0.80;;;;;;;15.06;53.25;101844.97;5449127;26;20272;-78
2024/04/14 09:32:59;;;;;;;4.33;1.33;;;;;;;15.06;52.69;101876.50;5465435;26;20455;-78
2024/04/14 09:35:25;;;;;;;3.83;1.13;;;;;;;15.08;54.10;101879.09;5449519;26;20234;-79
2024/04/14 09:37:54;;;;;;;1.67;0.60;;;;;;;15.05;54.13;101866.00;5448608;26;20237;-76
2024/04/14 09:40:22;;;;;;;1.77;0.70;;;;;;;14.88;54.31;101860.97;5449536;26;20277;-78
2024/04/14 09:42:57;;;;;;;3.30;1.00;;;;;;;15.03;55.05;101830.97;5448974;26;20302;-78
2024/04/14 09:45:24;;;;;;;1.70;0.80;;;;;;;15.19;54.30;101836.88;5448174;26;20233;-78
2024/04/14 09:47:53;;;;;;;6.33;1.17;;;;;;;15.21;54.21;101837.72;5449418;26;20242;-79
2024/04/14 09:50:20;;;;;;;2.90;1.27;;;;;;;15.26;54.30;101846.38;5445974;26;20245;-78
2024/04/14 09:52:51;;;;;;;2.60;1.00;;;;;;;15.19;53.27;101852.66;5463807;26;20237;-78
2024/04/14 09:55:16;;;;;;;3.20;0.83;;;;;;;15.41;52.54;101863.69;5451388;26;20267;-78
2024/04/14 09:57:45;;;;;;;3.07;1.10;;;;;;;15.59;53.10;101862.53;5450792;26;20237;-79
2024/04/14 10:00:15;;;;;;;2.73;0.73;;;;;;;15.41;53.12;101880.34;5449573;26;20248;-79
2024/04/14 10:02:50;;;;;;;1.70;0.80;;;;;;;15.40;52.66;101890.91;5449759;26;20292;-79
2024/04/14 10:05:16;;;;;;;2.13;0.80;;;;;;;15.49;52.59;101873.19;5449288;26;20279;-79
2024/04/14 10:07:45;;;;;;;1.33;0.50;;;;;;;15.32;52.66;101885.78;5450536;26;20297;-78
2024/04/14 10:10:11;;;;;;;2.30;1.20;;;;;;;15.38;51.91;101874.25;5449620;26;20269;-78
2024/04/14 10:12:40;;;;;;;2.93;1.27;;;;;;;15.58;50.87;101918.69;5449662;26;20254;-78
2024/04/14 10:15:07;;;;;;;2.53;0.70;;;;;;;15.76;50.01;101944.75;5449459;26;20324;-79
2024/04/14 10:17:38;;;;;;;2.40;0.63;;;;;;;15.61;48.23;101993.22;5450412;26;20241;-78
2024/04/14 10:20:12;;;;;;;2.83;0.60;;;;;;;15.60;47.12;102064.28;5462281;26;20241;-78
2024/04/14 10:22:43;;;;;;;2.20;0.70;;;;;;;15.51;49.04;102065.31;5448851;26;20268;-78
2024/04/14 10:25:17;;;;;;;1.83;0.47;;;;;;;15.59;48.80;102070.47;5447368;26;20264;-78
2024/04/14 10:27:45;;;;;;;1.23;0.50;;;;;;;15.87;47.22;102079.72;5436987;26;20242;-78
2024/04/14 10:30:18;;;;;;;2.13;0.83;;;;;;;15.94;47.84;102093.69;5446195;26;20790;-77
2024/04/14 10:32:49;;;;;;;0.90;0.57;;;;;;;15.64;46.07;102140.59;5447884;26;20308;-78
2024/04/14 10:35:15;;;;;;;2.47;0.53;;;;;;;15.39;46.17;102186.50;5452295;26;20577;-77
2024/04/14 10:37:43;;;;;;;0.70;0.70;;;;;;;15.48;45.27;102202.22;5447837;26;20237;-78
2024/04/14 10:40:12;;;;;;;2.53;0.67;;;;;;;15.23;45.85;102223.50;5442878;26;20744;-78
2024/04/14 10:42:40;;;;;;;2.63;0.80;;;;;;;15.79;46.03;102189.56;5428572;26;20281;-77
2024/04/14 10:45:06;;;;;;;3.30;0.60;;;;;;;16.05;46.01;102185.72;5447246;26;20280;-79
2024/04/14 10:47:34;;;;;;;2.03;0.63;;;;;;;15.97;46.43;102198.13;5446872;26;20600;-77
2024/04/14 10:50:03;;;;;;;1.23;0.80;;;;;;;16.16;46.03;102180.31;5448158;26;20233;-77
2024/04/14 10:52:32;;;;;;;1.67;0.70;;;;;;;16.09;45.38;102203.22;5446745;26;20252;-77
2024/04/14 10:54:57;;;;;;;2.27;0.50;;;;;;;15.97;46.16;102219.19;5445965;26;20230;-78
2024/04/14 10:57:25;;;;;;;2.80;1.03;;;;;;;15.93;46.11;102199.94;5447564;26;20276;-78
2024/04/14 10:59:50;;;;;;;3.33;0.60;;;;;;;15.76;46.82;102199.28;5440930;26;20260;-77
2024/04/14 11:02:19;;;;;;;2.40;0.80;;;;;;;15.61;46.73;102182.75;5439440;26;20230;-79
2024/04/14 11:04:45;;;;;;;3.03;0.77;;;;;;;15.86;47.16;102177.22;5436221;26;20230;-79
2024/04/14 11:07:16;;;;;;;2.93;0.80;;;;;;;15.73;45.39;102181.75;5446250;26;20234;-79
2024/04/14 11:09:42;;;;;;;1.73;0.60;;;;;;;15.97;46.17;102187.59;5447520;26;20268;-79
2024/04/14 11:12:10;;;;;;;2.40;0.50;;;;;;;16.04;46.20;102168.19;5450932;26;20322;-79
2024/04/14 11:14:36;;;;;;;0.93;0.60;;;;;;;15.95;45.71;102170.94;5459789;26;20262;-79
2024/04/14 11:17:11;;;;;;;2.37;0.90;;;;;;;16.07;46.10;102152.34;5447383;26;20769;-78
2024/04/14 11:19:36;;;;;;;1.73;0.63;;;;;;;16.25;47.00;102148.56;5462483;26;20229;-79
2024/04/14 11:22:04;;;;;;;3.37;0.70;;;;;;;16.36;47.96;102136.09;5445702;26;20268;-78
2024/04/14 11:24:35;;;;;;;4.03;0.87;;;;;;;16.39;46.37;102107.06;5462441;26;20230;-82
2024/04/14 11:27:03;;;;;;;2.30;0.80;;;;;;;16.63;47.90;102104.88;5464376;26;20336;-83